Time;durP1;ratioP1;P1;durP2;ratioP2;P2;SDS_P1;SDS_P2;PMS_P1;PMS_P2;Temp;Humidity;BMP_temperature;BMP_pressure;BME280_temperature;BME280_humidity;BME280_pressure;Samples;Min_cycle;Max_cycle;Signal;HPM_P1;HPM_P2
2021/08/21 00:01:31;;;;;;;5.40;3.73;;;14.00;99.90;;;11.37;100.00;100543.34;2637490;38;20717;-83
2021/08/21 00:04:00;;;;;;;4.17;3.37;;;12.90;99.90;;;11.26;100.00;100535.53;2637569;30;20202;-84
2021/08/21 00:06:29;;;;;;;5.50;3.90;;;12.90;99.90;;;11.23;100.00;100543.91;2635733;30;20270;-83
2021/08/21 00:08:58;;;;;;;7.10;4.10;;;12.80;99.90;;;11.22;100.00;100541.38;2645885;30;20218;-83
2021/08/21 00:11:27;;;;;;;6.10;4.00;;;12.80;99.90;;;10.99;100.00;100543.72;2640860;38;20240;-82
2021/08/21 00:13:58;;;;;;;7.83;4.77;;;12.80;99.90;;;10.92;100.00;100534.59;2635088;30;20306;-82
2021/08/21 00:16:27;;;;;;;10.93;6.03;;;12.80;99.90;;;10.87;100.00;100539.59;2637304;30;20997;-82
2021/08/21 00:18:57;;;;;;;7.67;5.20;;;12.70;99.90;;;10.82;100.00;100544.53;2639140;38;20210;-82
2021/08/21 00:21:26;;;;;;;8.40;5.33;;;12.70;99.90;;;10.82;100.00;100545.38;2642582;30;20287;-82
2021/08/21 00:23:55;;;;;;;9.67;5.33;;;12.60;99.90;;;10.82;100.00;100540.03;2644599;38;20221;-83
2021/08/21 00:26:24;;;;;;;12.80;6.17;;;12.60;99.90;;;10.85;100.00;100544.25;2634881;38;21129;-84
2021/08/21 00:29:32;;;;;;;8.77;7.13;;;12.50;99.90;;;10.79;100.00;100548.38;2637256;30;20684;-84
2021/08/21 00:32:46;;;;;;;7.57;6.00;;;12.50;99.90;;;10.76;100.00;100548.66;2634365;30;20214;-82
2021/08/21 00:35:59;;;;;;;8.77;6.47;;;12.40;99.90;;;10.82;100.00;100552.56;2633552;30;20232;-84
2021/08/21 00:39:13;;;;;;;7.77;5.90;;;12.40;99.90;;;10.83;100.00;100549.75;2638933;38;20482;-82
2021/08/21 00:41:51;;;;;;;8.20;5.80;;;12.30;99.90;;;10.78;100.00;100546.69;2631229;30;20537;-84
2021/08/21 00:44:22;;;;;;;9.33;5.40;;;12.30;99.90;;;10.66;100.00;100550.56;2654081;30;20214;-84
2021/08/21 00:47:13;;;;;;;9.57;5.20;;;12.30;99.90;;;10.71;100.00;100551.81;2634596;30;20302;-84
2021/08/21 00:49:48;;;;;;;6.20;4.70;;;13.10;99.90;;;10.76;100.00;100545.97;2650281;30;20226;-83
2021/08/21 00:52:45;;;;;;;7.87;5.27;;;12.20;99.90;;;10.72;100.00;100555.34;2633166;30;20737;31
2021/08/21 00:55:23;;;;;;;8.57;5.23;;;12.20;99.90;;;10.70;100.00;100547.44;2642613;30;20225;-84
2021/08/21 00:57:52;;;;;;;5.73;4.20;;;12.20;99.90;;;10.73;100.00;100541.81;2650357;38;20217;-82
2021/08/21 01:00:25;;;;;;;11.37;4.90;;;12.20;99.90;;;10.87;100.00;100531.56;2653957;38;20229;-82
2021/08/21 01:02:54;;;;;;;7.57;4.93;;;13.30;99.90;;;10.73;100.00;100539.13;2637140;30;20218;-82
2021/08/21 01:05:25;;;;;;;8.00;4.07;;;11.70;99.90;;;10.66;100.00;100535.34;2647066;38;20218;-83
2021/08/21 01:07:54;;;;;;;5.73;4.67;;;12.10;99.90;;;10.67;100.00;100536.19;2641792;30;20278;-83
2021/08/21 01:10:23;;;;;;;4.70;3.80;;;12.10;99.90;;;10.61;100.00;100531.47;2632631;30;20580;-82
2021/08/21 01:13:30;;;;;;;7.83;4.43;;;12.10;99.90;;;10.52;100.00;100524.34;2638414;30;20226;-82
2021/08/21 01:16:11;;;;;;;7.43;4.57;;;12.10;99.90;;;10.62;100.00;100517.94;2639632;38;20214;-82
2021/08/21 01:18:42;;;;;;;6.37;4.03;;;12.10;99.90;;;10.57;100.00;100522.06;2638170;30;20222;-82
2021/08/21 01:21:11;;;;;;;6.30;3.93;;;12.10;99.90;;;10.66;100.00;100518.47;2645833;38;20211;-83
2021/08/21 01:23:40;;;;;;;5.40;3.83;;;12.10;99.90;;;10.64;100.00;100512.41;2637855;30;20482;-82
2021/08/21 01:26:12;;;;;;;6.07;3.50;;;12.00;99.90;;;10.62;100.00;100512.59;2637423;30;20427;-84
2021/08/21 01:29:40;;;;;;;7.33;4.67;;;12.00;99.90;;;10.58;100.00;100513.88;2636468;38;20246;-83
2021/08/21 01:32:55;;;;;;;4.17;3.63;;;12.00;99.90;;;10.59;100.00;100507.53;2643732;38;20241;-84
2021/08/21 01:35:33;;;;;;;7.40;4.10;;;12.00;99.90;;;10.51;100.00;100518.16;2644274;38;20557;-82
2021/08/21 01:38:10;;;;;;;7.77;3.80;;;12.00;99.90;;;10.44;100.00;100509.06;2627814;38;20915;31
2021/08/21 01:41:04;;;;;;;4.90;3.80;;;12.00;99.90;;;10.30;100.00;100499.72;2632590;30;21330;31
2021/08/21 01:44:21;;;;;;;7.70;4.57;;;11.90;99.90;;;10.35;100.00;100499.28;2634700;38;20213;-82
2021/08/21 01:47:37;;;;;;;5.17;3.87;;;11.90;99.90;;;10.31;100.00;100497.88;2631458;30;20619;-83
2021/08/21 01:50:51;;;;;;;7.00;3.93;;;12.30;99.90;;;10.25;100.00;100471.75;2642069;30;28719;-83
2021/08/21 01:53:32;;;;;;;5.50;3.20;;;11.80;99.90;;;10.29;100.00;100443.69;2635987;30;20202;31
2021/08/21 01:56:02;;;;;;;5.87;4.30;;;11.80;99.90;;;10.09;100.00;100432.28;2643202;30;20281;-84
2021/08/21 01:59:03;;;;;;;8.10;4.63;;;11.80;99.90;;;9.96;100.00;100437.16;2638824;30;20237;-82
2021/08/21 02:01:46;;;;;;;5.67;4.27;;;11.80;99.90;;;10.01;100.00;100410.81;2643163;30;20218;-81
2021/08/21 02:04:26;;;;;;;5.93;4.57;;;11.70;99.90;;;9.98;100.00;100369.19;2634701;38;21396;-83
2021/08/21 02:06:58;;;;;;;5.77;3.13;;;11.70;99.90;;;10.09;100.00;100288.75;2577661;38;2828814;-84
2021/08/21 02:09:29;;;;;;;6.37;4.83;;;11.70;99.90;;;10.07;100.00;100265.84;2639406;38;20237;-80
2021/08/21 02:12:35;;;;;;;6.80;4.13;;;11.70;99.90;;;10.08;100.00;100230.09;2656258;30;22119;-85
2021/08/21 02:15:17;;;;;;;4.67;3.53;;;11.70;99.90;;;10.10;100.00;100201.38;2651280;30;20867;-82
2021/08/21 02:17:57;;;;;;;6.37;4.60;;;11.70;99.90;;;10.14;100.00;100194.69;2646616;38;20206;-81
2021/08/21 02:20:48;;;;;;;5.00;4.40;;;11.60;99.90;;;10.05;100.00;100204.50;2643560;38;20878;-84
2021/08/21 02:23:23;;;;;;;6.27;4.77;;;11.60;99.90;;;10.01;100.00;100208.47;2647451;30;20256;-83
2021/08/21 02:25:58;;;;;;;6.60;4.20;;;11.60;99.90;;;10.02;100.00;100222.69;2639819;30;20548;31
2021/08/21 02:28:36;;;;;;;5.97;3.80;;;11.60;99.90;;;10.05;100.00;100231.25;2634901;38;23270;-83
2021/08/21 02:31:05;;;;;;;5.50;3.57;;;11.70;99.90;;;9.97;100.00;100228.50;2646885;30;21049;-83
2021/08/21 02:33:37;;;;;;;6.23;4.40;;;12.40;99.90;;;9.89;100.00;100212.41;2652397;38;20215;-82
2021/08/21 02:36:07;;;;;;;5.90;3.57;;;11.60;99.90;;;9.86;100.00;100209.22;2621546;30;21373;31
2021/08/21 02:38:35;;;;;;;7.37;4.13;;;11.60;99.90;;;9.98;100.00;100211.47;2638773;30;20803;-82
2021/08/21 02:41:08;;;;;;;9.40;4.93;;;11.50;99.90;;;10.02;100.00;100210.16;2642768;38;20566;-81
2021/08/21 02:43:37;;;;;;;4.07;3.67;;;11.50;99.90;;;10.05;100.00;100211.69;2651012;30;20246;-83
2021/08/21 02:46:06;;;;;;;9.30;4.57;;;11.50;99.90;;;10.05;100.00;100209.84;2635388;30;23248;-82
2021/08/21 02:48:37;;;;;;;4.70;3.53;;;11.20;99.90;;;10.06;100.00;100206.19;2646058;38;20237;-83
2021/08/21 02:51:06;;;;;;;5.47;4.53;;;12.10;99.90;;;10.10;100.00;100193.34;2638494;30;20211;-83
2021/08/21 02:54:11;;;;;;;7.07;4.67;;;11.50;99.90;;;10.19;100.00;100195.09;2647577;30;20203;-85
2021/08/21 02:57:29;;;;;;;6.20;4.77;;;12.70;99.90;;;10.14;100.00;100186.66;2646926;38;20175;31
2021/08/21 03:00:43;;;;;;;4.97;3.70;;;11.60;99.90;;;10.05;100.00;100184.94;2662149;30;20807;-83
2021/08/21 03:04:00;;;;;;;3.70;3.17;;;11.60;99.90;;;10.08;100.00;100171.28;2640991;30;20207;31
2021/08/21 03:06:48;;;;;;;5.37;4.20;;;12.70;99.90;;;9.96;100.00;100168.03;2643764;30;21477;31
2021/08/21 03:10:15;;;;;;;6.15;3.95;;;11.60;99.90;;;9.84;100.00;100166.63;2639855;30;20369;31
2021/08/21 03:13:55;;;;;;;6.00;4.47;;;11.60;99.90;;;9.93;100.00;100163.00;2651792;38;20211;-83
2021/08/21 03:17:11;;;;;;;9.27;5.00;;;10.60;99.90;;;9.96;100.00;100169.88;2656984;38;20222;-81
2021/08/21 03:20:28;;;;;;;6.13;4.10;;;11.60;99.90;;;9.94;100.00;100174.53;2631101;38;20249;-83
2021/08/21 03:23:05;;;;;;;4.17;3.73;;;11.50;99.90;;;9.91;100.00;100186.34;2635756;38;20214;-82
2021/08/21 03:25:49;;;;;;;5.03;3.37;;;12.50;99.90;;;10.05;100.00;100183.13;2643160;30;20309;31
2021/08/21 03:29:05;;;;;;;7.17;5.30;;;11.60;99.90;;;9.86;100.00;100180.66;2629887;38;21442;31
2021/08/21 03:32:20;;;;;;;6.33;4.73;;;11.60;99.90;;;9.74;100.00;100189.91;2660369;30;20557;-83
2021/08/21 03:35:37;;;;;;;5.10;4.57;;;11.50;99.90;;;9.81;100.00;100200.81;2638883;38;20294;-82
2021/08/21 03:38:51;;;;;;;6.80;3.77;;;11.50;99.90;;;9.84;100.00;100209.38;2629647;30;20483;-82
2021/08/21 03:42:04;;;;;;;4.30;3.67;;;11.50;99.90;;;9.67;100.00;100208.38;2633336;38;21169;-83
2021/08/21 03:45:20;;;;;;;5.57;3.97;;;11.40;99.90;;;9.87;100.00;100214.41;2647971;38;21384;-82
2021/08/21 03:48:34;;;;;;;5.33;3.67;;;11.40;99.90;;;9.91;100.00;100233.63;2630699;30;20218;-84
2021/08/21 03:51:53;;;;;;;4.37;2.87;;;11.80;99.90;;;9.92;100.00;100228.13;2646901;30;20205;31
2021/08/21 03:55:09;;;;;;;5.20;4.37;;;11.40;99.90;;;9.98;100.00;100246.22;2642266;30;22455;-82
2021/08/21 03:58:23;;;;;;;5.70;4.07;;;11.50;99.90;;;10.06;100.00;100250.78;2644346;30;21647;-82
2021/08/21 04:01:37;;;;;;;4.83;4.33;;;11.50;99.90;;;10.15;100.00;100246.34;2637190;38;20425;-83
2021/08/21 04:05:01;;;;;;;5.00;4.13;;;11.60;99.90;;;10.16;100.00;100240.84;2636778;30;21305;-84
2021/08/21 04:07:41;;;;;;;5.20;4.57;;;11.60;99.90;;;10.20;100.00;100236.91;2641844;38;20222;-84
2021/08/21 04:10:13;;;;;;;7.47;4.67;;;11.60;99.90;;;10.30;100.00;100226.09;2631545;38;20257;-83
2021/08/21 04:12:46;;;;;;;12.80;5.20;;;11.70;99.90;;;10.35;100.00;100224.63;2641876;30;20240;31
2021/08/21 04:15:54;;;;;;;5.67;4.43;;;11.80;99.90;;;10.31;100.00;100215.22;2635787;38;20237;-83
2021/08/21 04:18:31;;;;;;;9.73;5.10;;;11.80;99.90;;;10.23;100.00;100215.19;2634732;38;20225;-81
2021/08/21 04:23:42;;;;;;;7.43;4.60;;;11.90;99.90;;;10.12;100.00;100204.72;2633775;38;21633;31
2021/08/21 04:26:59;;;;;;;6.13;4.57;;;12.00;99.90;;;10.19;100.00;100199.59;2633092;38;21182;-82
2021/08/21 04:30:14;;;;;;;5.30;3.57;;;12.00;99.90;;;10.21;100.00;100189.59;2629120;30;20668;-84
2021/08/21 04:32:52;;;;;;;5.50;3.67;;;12.10;99.90;;;10.28;100.00;100195.97;2646714;38;20201;-83
2021/08/21 04:35:24;;;;;;;4.83;3.97;;;12.00;99.90;;;10.36;100.00;100202.25;2640820;30;21069;-82
2021/08/21 04:38:32;;;;;;;4.63;3.23;;;12.30;99.90;;;10.43;100.00;100205.94;2632906;30;20234;-82
2021/08/21 04:41:49;;;;;;;4.20;3.80;;;12.40;99.90;;;10.59;100.00;100199.00;2634253;38;20645;-83
2021/08/21 04:45:03;;;;;;;4.53;3.83;;;12.40;99.90;;;10.62;100.00;100193.34;2642296;30;21178;-83
2021/08/21 04:47:41;;;;;;;7.63;5.40;;;12.50;99.90;;;10.64;100.00;100193.97;2626600;30;20249;-82
2021/08/21 04:50:12;;;;;;;4.30;3.57;;;12.60;99.90;;;10.74;100.00;100198.25;2641144;30;21465;-82
2021/08/21 04:52:41;;;;;;;6.87;4.63;;;12.60;99.90;;;10.86;100.00;100197.94;2629456;38;20214;-82
2021/08/21 04:55:12;;;;;;;8.57;4.63;;;13.90;99.90;;;10.88;100.00;100186.03;2644040;38;20207;-83
2021/08/21 04:57:43;;;;;;;6.63;4.37;;;12.80;99.90;;;10.93;100.00;100188.25;2626092;30;20403;-84
2021/08/21 05:00:13;;;;;;;5.50;3.80;;;13.90;99.90;;;10.98;100.00;100191.28;2648457;30;20217;31
2021/08/21 05:03:36;;;;;;;5.43;4.03;;;13.00;99.90;;;11.15;100.00;100191.16;2633829;30;20210;-83
2021/08/21 05:06:50;;;;;;;4.33;3.70;;;13.10;99.90;;;11.11;100.00;100179.09;2645714;30;20420;-84
2021/08/21 05:09:28;;;;;;;4.33;3.70;;;13.20;99.90;;;11.10;100.00;100172.06;2630758;38;20747;-84
2021/08/21 05:12:01;;;;;;;4.80;3.97;;;13.20;99.90;;;11.14;100.00;100169.88;2636789;30;20218;-84
2021/08/21 05:14:39;;;;;;;4.17;3.70;;;14.40;99.90;;;11.23;100.00;100170.75;2636834;38;21285;-83
2021/08/21 05:20:41;;;;;;;7.87;4.37;;;13.50;99.90;;;11.57;100.00;100160.72;2636566;30;20218;-84
2021/08/21 05:23:30;;;;;;;8.43;4.40;;;14.00;99.90;;;11.67;100.00;100161.41;2626727;38;20603;31
2021/08/21 05:26:47;;;;;;;6.70;4.03;;;13.60;99.90;;;11.78;100.00;100153.03;2641369;30;20446;-83
2021/08/21 05:30:04;;;;;;;7.33;4.57;;;13.70;99.90;;;11.81;100.00;100142.00;2636069;38;20580;-83
2021/08/21 05:35:57;;;;;;;8.10;4.20;;;13.90;99.90;;;11.83;100.00;100136.47;2633682;38;20206;-84
2021/08/21 05:39:10;;;;;;;8.43;4.40;;;14.00;99.90;;;12.03;100.00;100137.75;2638243;30;20695;-84
2021/08/21 05:42:24;;;;;;;6.87;4.10;;;14.00;99.90;;;12.09;100.00;100130.88;2637372;30;20280;-83
2021/08/21 05:45:41;;;;;;;5.63;4.73;;;14.10;99.90;;;12.14;100.00;100128.50;2634635;38;21036;-84
2021/08/21 05:48:54;;;;;;;3.93;3.20;;;14.20;99.90;;;12.24;100.00;100121.09;2639534;30;21211;-83
2021/08/21 05:52:07;;;;;;;8.33;4.67;;;14.30;99.90;;;12.43;100.00;100117.19;2628475;30;20558;-82
2021/08/21 05:55:20;;;;;;;5.37;3.90;;;14.30;99.90;;;12.45;100.00;100113.31;2630926;30;20565;-83
2021/08/21 05:58:38;;;;;;;6.87;4.10;;;14.40;99.90;;;12.65;100.00;100116.41;2643734;30;21289;-84
2021/08/21 06:01:54;;;;;;;6.33;3.90;;;14.50;99.90;;;12.61;100.00;100107.00;2630115;38;20219;-82
2021/08/21 06:05:07;;;;;;;6.37;4.13;;;14.60;99.90;;;12.73;100.00;100110.16;2631470;30;20515;-82
2021/08/21 06:08:22;;;;;;;8.80;5.40;;;14.70;99.90;;;12.81;100.00;100107.44;2630727;38;20402;-83
2021/08/21 06:14:17;;;;;;;6.30;4.73;;;14.90;99.90;;;13.55;100.00;100106.75;2633681;30;20202;-83
2021/08/21 06:17:33;;;;;;;8.00;5.67;;;15.00;99.90;;;14.23;100.00;100108.38;2641449;38;20222;-84
2021/08/21 06:20:46;;;;;;;5.53;4.13;;;15.30;99.90;;;14.60;100.00;100120.91;2632104;30;20214;-82
2021/08/21 06:24:00;;;;;;;10.67;5.40;;;15.60;99.90;;;15.01;100.00;100123.88;2638487;30;20234;-84
2021/08/21 06:27:13;;;;;;;9.53;4.97;;;16.10;99.90;;;15.29;100.00;100126.66;2744668;30;20438;-82
2021/08/21 06:29:53;;;;;;;7.70;4.38;;;16.30;99.90;;;15.62;100.00;100161.22;2632938;38;20211;31
2021/08/21 06:32:24;;;;;;;6.68;4.32;;;16.60;99.90;;;15.76;100.00;100181.88;2646310;30;20202;-83
2021/08/21 06:35:30;;;;;;;8.57;5.60;;;16.90;99.90;;;16.07;100.00;100213.94;2647013;38;21370;-82
2021/08/21 06:38:43;;;;;;;7.60;4.32;;;17.30;99.90;;;16.15;100.00;100276.69;2630789;38;20268;-83
2021/08/21 06:41:56;;;;;;;6.50;4.45;;;17.70;99.90;;;16.33;100.00;100349.09;2639384;30;20519;-83
2021/08/21 06:45:11;;;;;;;5.63;3.90;;;19.10;99.90;;;16.32;100.00;100408.72;2637452;38;20218;-83
2021/08/21 06:48:29;;;;;;;5.90;4.15;;;18.70;99.90;;;16.47;100.00;100461.63;2630998;30;20210;-82
2021/08/21 06:51:42;;;;;;;5.32;4.00;;;18.70;99.90;;;16.19;100.00;100486.88;2628781;30;20302;-82
2021/08/21 06:54:55;;;;;;;5.00;3.50;;;19.10;99.90;;;16.88;100.00;100502.41;2619381;30;20428;-83
2021/08/21 06:58:09;;;;;;;5.13;3.53;;;19.10;99.90;;;17.05;100.00;100546.22;2632023;38;20206;-82
2021/08/21 07:01:22;;;;;;;4.93;3.22;;;19.40;99.90;;;17.26;100.00;100596.75;2620420;30;20222;-82
2021/08/21 07:04:39;;;;;;;5.75;4.07;;;19.50;99.90;;;18.49;100.00;100628.66;2617684;30;20344;-82
2021/08/21 07:07:52;;;;;;;3.10;2.72;;;20.10;99.90;;;18.45;100.00;100658.03;2623702;30;20527;-81
2021/08/21 07:11:05;;;;;;;4.82;3.25;;;20.60;99.90;;;17.92;100.00;100665.00;2623715;30;20238;-84
2021/08/21 07:14:18;;;;;;;3.60;3.17;;;21.00;99.90;;;17.78;100.00;100647.81;2617446;38;20237;-83
2021/08/21 07:17:31;;;;;;;6.00;3.67;;;21.30;99.90;;;17.54;100.00;100638.22;2621049;30;20375;-82
2021/08/21 07:20:48;;;;;;;4.75;3.00;;;21.30;99.90;;;17.74;100.00;100613.19;2615644;38;20943;-84
2021/08/21 07:24:01;;;;;;;5.38;3.60;;;22.00;99.90;;;17.85;100.00;100624.31;2620761;38;21100;-85
2021/08/21 07:27:14;;;;;;;4.57;3.47;;;21.60;99.90;;;18.27;100.00;100614.38;2627930;30;20273;-82
2021/08/21 07:30:27;;;;;;;5.43;3.63;;;21.90;99.90;;;18.51;100.00;100637.44;2618735;30;21175;-84
2021/08/21 07:33:40;;;;;;;3.55;3.25;;;22.10;99.90;;;19.02;100.00;100670.41;2615009;30;20218;-82
2021/08/21 07:36:57;;;;;;;4.68;2.58;;;22.20;99.90;;;19.59;100.00;100710.63;2626123;30;20419;-83
2021/08/21 07:40:10;;;;;;;4.35;3.05;;;22.60;99.90;;;19.43;100.00;100753.56;2617140;30;20203;-81
2021/08/21 07:43:24;;;;;;;3.30;2.70;;;23.00;99.90;;;19.65;100.00;100785.00;2620989;30;21173;-84
2021/08/21 07:46:39;;;;;;;5.68;3.50;;;23.50;99.90;;;19.85;100.00;100806.75;2623789;30;21065;-84
2021/08/21 07:49:52;;;;;;;3.13;2.80;;;23.90;99.90;;;20.34;100.00;100841.72;2618337;30;20214;-83
2021/08/21 07:53:08;;;;;;;3.95;3.35;;;24.30;98.90;;;20.33;100.00;100843.59;2621321;30;20600;-82
2021/08/21 07:56:22;;;;;;;2.90;2.67;;;24.60;97.80;;;20.05;100.00;100894.53;2617775;30;20608;-83
2021/08/21 07:59:35;;;;;;;3.78;2.83;;;24.90;96.50;;;20.12;100.00;100957.06;2616819;30;21018;-81
2021/08/21 08:02:48;;;;;;;4.80;3.20;;;25.20;95.20;;;19.58;100.00;101025.72;2620069;30;20600;-81
2021/08/21 08:06:01;;;;;;;3.25;2.40;;;25.30;93.90;;;20.31;100.00;101013.34;2619161;38;21086;-83
2021/08/21 08:09:17;;;;;;;2.90;2.20;;;25.40;93.00;;;20.86;100.00;101049.47;2619074;30;20237;-83
2021/08/21 08:12:31;;;;;;;2.28;2.08;;;26.20;92.70;;;20.07;100.00;101063.59;2625987;30;20562;-86
2021/08/21 08:15:45;;;;;;;3.63;2.08;;;25.60;90.20;;;20.34;100.00;101064.56;2616525;30;20624;-80
2021/08/21 08:18:58;;;;;;;2.97;2.33;;;25.70;90.00;;;20.57;100.00;101083.28;2620109;30;20222;-83
2021/08/21 08:22:11;;;;;;;7.13;2.85;;;25.80;88.70;;;20.71;100.00;101110.31;2620911;38;20370;-83
2021/08/21 08:25:28;;;;;;;3.22;2.50;;;25.90;87.10;;;20.91;100.00;101129.41;2625425;30;20508;-85
2021/08/21 08:28:42;;;;;;;3.95;1.77;;;26.10;85.00;;;20.56;100.00;101198.53;2627423;38;20203;-84
2021/08/21 08:31:55;;;;;;;2.75;2.40;;;26.20;80.50;;;20.72;100.00;101190.88;2620909;30;20516;-83
2021/08/21 08:35:09;;;;;;;2.63;1.80;;;26.50;79.20;;;20.62;100.00;101214.03;2616991;30;21001;-83
2021/08/21 08:38:23;;;;;;;2.38;2.17;;;26.50;77.80;;;20.07;100.00;101169.56;2616097;30;20739;-85
2021/08/21 08:41:42;;;;;;;4.72;3.03;;;26.00;74.60;;;20.72;100.00;101171.84;2646379;30;20203;-83
2021/08/21 08:45:02;;;;;;;2.90;2.08;;;25.80;72.80;;;21.02;100.00;101248.53;2630992;38;20198;-82
2021/08/21 08:48:15;;;;;;;2.35;1.30;;;25.80;73.40;;;21.16;100.00;101328.34;2619746;30;20429;-81
2021/08/21 08:51:31;;;;;;;2.90;2.30;;;26.20;72.40;;;21.15;100.00;101519.91;2621558;38;20609;-83
2021/08/21 08:54:09;;;;;;;3.47;2.22;;;26.30;72.20;;;21.70;100.00;101559.91;2614648;30;20846;-84
2021/08/21 08:56:40;;;;;;;2.00;1.80;;;26.00;71.40;;;21.45;100.00;101583.19;2618065;38;20227;-84
2021/08/21 08:59:09;;;;;;;2.97;1.52;;;26.20;69.90;;;21.69;100.00;101138.75;2624319;38;20345;-80
2021/08/21 09:01:38;;;;;;;1.80;1.70;;;26.40;69.20;;;21.19;100.00;100889.81;2622089;30;20249;-83
2021/08/21 09:04:22;;;;;;;2.42;2.22;;;26.40;68.90;;;20.83;100.00;100844.00;2619664;30;20237;-83
2021/08/21 09:06:52;;;;;;;2.08;1.83;;;26.60;68.10;;;22.17;100.00;100836.78;2616722;30;20246;-83
2021/08/21 09:09:23;;;;;;;2.22;1.75;;;27.40;68.70;;;22.57;100.00;100833.75;2616330;30;20568;-81
2021/08/21 09:11:57;;;;;;;1.80;1.70;;;27.30;67.70;;;22.84;100.00;100715.16;2623572;30;20225;-85
2021/08/21 09:14:29;;;;;;;3.63;2.38;;;27.20;67.20;;;22.56;100.00;100733.88;2619746;30;20277;-84
2021/08/21 09:17:19;;;;;;;1.75;1.63;;;27.50;66.00;;;22.21;100.00;100726.25;2612905;30;20212;-83
2021/08/21 09:19:49;;;;;;;8.95;2.25;;;27.80;65.30;;;22.02;100.00;100723.69;2610978;38;20553;-83
2021/08/21 09:22:18;;;;;;;2.83;2.55;;;27.90;64.60;;;22.49;100.00;100720.34;2617466;30;20410;-87
2021/08/21 09:24:47;;;;;;;2.78;2.53;;;28.00;64.20;;;22.93;100.00;100726.56;2619867;30;20214;-83
2021/08/21 09:27:22;;;;;;;1.88;1.67;;;28.20;64.20;;;23.16;100.00;100728.59;2616778;38;20244;-82
2021/08/21 09:30:13;;;;;;;3.45;1.92;;;28.30;63.40;;;23.17;100.00;100727.53;2620223;30;20206;-83
2021/08/21 09:32:42;;;;;;;1.80;1.50;;;28.50;62.40;;;23.13;100.00;100729.88;2614343;38;20210;-84
2021/08/21 09:35:14;;;;;;;3.00;1.70;;;29.20;62.20;;;23.15;100.00;100727.75;2621640;30;20237;-82
2021/08/21 09:37:51;;;;;;;2.00;1.80;;;28.80;60.00;;;22.35;100.00;100724.25;2622658;30;21216;-86
2021/08/21 09:40:30;;;;;;;1.98;1.80;;;29.50;58.20;;;22.80;100.00;100727.56;2614718;30;20249;-82
2021/08/21 09:43:03;;;;;;;2.85;1.52;;;28.90;58.10;;;22.66;100.00;100730.63;2612809;38;20511;-83
2021/08/21 09:45:35;;;;;;;2.42;1.67;;;28.90;56.80;;;22.71;100.00;100725.34;2615436;30;20225;-82
2021/08/21 09:48:07;;;;;;;3.10;1.77;;;29.00;55.40;;;21.41;100.00;100730.59;2616613;30;20332;-82
2021/08/21 09:50:39;;;;;;;1.67;1.23;;;29.50;53.90;;;22.51;100.00;100731.81;2606475;38;21365;-83
2021/08/21 09:53:11;;;;;;;3.83;1.42;;;29.10;54.90;;;24.27;100.00;100726.09;2613268;30;20341;-85
2021/08/21 09:55:42;;;;;;;2.90;1.40;;;29.00;55.70;;;23.25;100.00;100733.50;2620750;30;20545;-83
2021/08/21 09:58:17;;;;;;;2.08;1.85;;;29.20;54.10;;;22.63;100.00;100729.19;2623002;30;20611;-83
2021/08/21 10:00:47;;;;;;;2.42;1.50;;;29.30;52.90;;;23.32;100.00;100727.97;2610360;30;20393;-81
2021/08/21 10:03:18;;;;;;;4.47;1.70;;;29.30;53.10;;;23.94;100.00;100734.00;2610599;30;21056;-81
2021/08/21 10:05:48;;;;;;;1.52;1.33;;;29.40;53.50;;;23.56;100.00;100727.03;2611235;30;21679;-81
2021/08/21 10:08:18;;;;;;;2.80;1.52;;;29.60;53.00;;;21.75;100.00;100729.34;2613878;30;20309;-82
2021/08/21 10:10:54;;;;;;;2.67;1.92;;;29.70;50.90;;;23.26;100.00;100726.97;2619813;30;20249;-84
2021/08/21 10:13:30;;;;;;;2.90;1.58;;;29.70;51.30;;;23.75;100.00;100730.50;2612116;30;20214;-82
2021/08/21 10:16:03;;;;;;;2.20;1.77;;;29.80;51.60;;;23.42;100.00;100724.66;2614160;30;20950;-81
2021/08/21 10:18:33;;;;;;;2.58;1.05;;;30.00;51.70;;;24.23;100.00;100718.63;2611131;30;20210;-82
2021/08/21 10:21:01;;;;;;;1.60;1.50;;;30.20;51.50;;;23.34;100.00;100723.13;2611569;30;20207;-81
2021/08/21 10:23:31;;;;;;;4.75;1.85;;;30.30;51.30;;;24.10;100.00;100716.94;2610553;30;20508;-82
2021/08/21 10:26:07;;;;;;;2.20;1.20;;;30.70;51.00;;;24.87;100.00;100716.75;2607930;31;20424;-81
2021/08/21 10:28:43;;;;;;;2.78;1.55;;;31.00;50.60;;;25.04;100.00;100713.06;2608677;30;20297;-81
2021/08/21 10:31:35;;;;;;;1.67;1.40;;;31.40;50.10;;;23.76;100.00;100720.41;2609841;30;20855;-81
2021/08/21 10:34:05;;;;;;;2.78;1.50;;;31.60;48.60;;;24.39;100.00;100712.41;2608288;38;20248;-81
2021/08/21 10:36:48;;;;;;;1.73;1.17;;;32.00;48.60;;;24.46;100.00;100710.41;2611980;38;20895;-83
2021/08/21 10:39:27;;;;;;;1.35;1.23;;;32.40;48.50;;;24.52;100.00;100716.81;2619937;30;20505;-82
2021/08/21 10:41:57;;;;;;;1.90;1.65;;;32.30;47.90;;;24.56;100.00;100718.84;2614370;38;20813;-82
2021/08/21 10:44:47;;;;;;;1.27;1.17;;;32.40;47.50;;;24.19;100.00;100711.94;2606404;38;20985;-83
2021/08/21 10:47:40;;;;;;;1.55;1.23;;;32.30;47.20;;;24.19;100.00;100720.13;2611140;38;20825;-82
2021/08/21 10:50:33;;;;;;;1.80;0.80;;;32.10;47.30;;;23.83;100.00;100715.69;2606964;30;20228;-83
2021/08/21 10:53:04;;;;;;;1.88;1.33;;;31.80;47.50;;;23.91;100.00;100712.59;2620782;30;20650;-82
2021/08/21 10:55:43;;;;;;;1.35;1.00;;;31.50;47.80;;;23.95;100.00;100708.34;2608666;30;20885;-81
2021/08/21 10:58:16;;;;;;;1.65;1.02;;;31.30;47.80;;;23.60;100.00;100711.84;2611163;30;20218;-81
2021/08/21 11:01:01;;;;;;;1.45;1.13;;;31.10;48.00;;;24.12;100.00;100711.19;2609337;31;20226;-81
2021/08/21 11:03:54;;;;;;;1.10;0.98;;;30.90;48.40;;;23.89;100.00;100706.53;2617397;38;20636;-83
2021/08/21 11:06:41;;;;;;;0.80;0.80;;;30.80;48.40;;;23.95;100.00;100709.19;2612057;30;20851;-84
2021/08/21 11:09:26;;;;;;;1.08;0.95;;;30.70;48.60;;;24.02;100.00;100703.59;2614768;38;20582;-83
2021/08/21 11:11:55;;;;;;;2.75;1.48;;;30.60;48.70;;;23.48;100.00;100713.66;2607397;31;20514;-83
2021/08/21 11:14:39;;;;;;;1.98;1.30;;;30.50;48.80;;;23.89;100.00;100712.00;2611899;30;20353;-82
2021/08/21 11:17:15;;;;;;;1.35;1.13;;;30.40;49.00;;;23.21;100.00;100712.38;2621425;38;20216;-83
2021/08/21 11:19:49;;;;;;;0.77;0.73;;;30.50;48.40;;;23.56;100.00;100701.59;2622160;30;20458;-84
2021/08/21 11:22:29;;;;;;;1.75;1.10;;;30.50;46.60;;;23.68;100.00;100704.38;2624608;30;20197;-83
2021/08/21 11:25:13;;;;;;;1.77;1.38;;;30.50;46.90;;;23.39;100.00;100701.38;2614758;30;20549;-82
2021/08/21 11:27:44;;;;;;;0.93;0.70;;;30.30;46.90;;;24.03;100.00;100698.94;2616064;38;20576;-82
2021/08/21 11:30:29;;;;;;;0.93;0.80;;;30.20;47.50;;;24.68;100.00;100695.03;2605307;30;20882;-81
2021/08/21 11:33:16;;;;;;;0.80;0.80;;;30.10;47.80;;;24.49;100.00;100696.22;2608286;30;20214;-83
2021/08/21 11:35:53;;;;;;;1.75;0.95;;;30.20;47.90;;;23.96;100.00;100696.34;2612388;38;20384;-82
2021/08/21 11:38:30;;;;;;;2.88;1.50;;;30.30;48.20;;;23.61;100.00;100701.75;2609488;30;20250;-83
2021/08/21 11:41:01;;;;;;;1.70;1.02;;;30.20;48.40;;;23.42;100.00;100708.28;2611581;30;20253;-83
2021/08/21 11:43:33;;;;;;;2.10;1.23;;;30.00;48.60;;;23.46;100.00;100706.78;2610282;38;20736;-82
2021/08/21 11:46:04;;;;;;;1.55;1.00;;;30.00;48.80;;;23.26;100.00;100704.31;2607317;30;20539;-81
2021/08/21 11:48:39;;;;;;;1.58;1.00;;;29.60;48.90;;;23.54;100.00;100703.72;2605391;30;20357;-82
2021/08/21 11:51:10;;;;;;;1.92;1.35;;;29.50;49.20;;;23.25;100.00;100699.91;2610247;30;20258;-82
2021/08/21 11:53:42;;;;;;;1.35;0.70;;;29.80;49.60;;;24.51;100.00;100694.09;2610313;30;20828;-83
2021/08/21 11:56:16;;;;;;;1.15;1.05;;;29.80;49.40;;;23.90;100.00;100692.63;2613825;30;20747;-83
2021/08/21 11:58:46;;;;;;;1.55;1.33;;;30.20;48.80;;;23.33;100.00;100688.69;2609204;30;20318;-82